createdAt,value
2022-12-08T00:01:18.082Z,2.30
2022-12-08T00:03:45.219Z,2.30
2022-12-08T00:06:58.991Z,2.30
2022-12-08T00:09:39.684Z,2.20
2022-12-08T00:12:12.327Z,2.20
2022-12-08T00:14:47.305Z,2.30
2022-12-08T00:17:16.356Z,2.20
2022-12-08T00:19:44.012Z,2.20
2022-12-08T00:22:11.618Z,2.20
2022-12-08T00:24:39.797Z,2.20
2022-12-08T00:27:08.017Z,2.30
2022-12-08T00:29:34.613Z,2.30
2022-12-08T00:32:01.309Z,2.30
2022-12-08T00:34:27.934Z,2.30
2022-12-08T00:36:54.678Z,2.30
2022-12-08T00:39:22.241Z,2.30
2022-12-08T00:42:07.296Z,2.30
2022-12-08T00:44:33.930Z,2.30
2022-12-08T00:47:00.701Z,2.40
2022-12-08T00:49:27.313Z,2.40
2022-12-08T00:51:54.053Z,2.40
2022-12-08T00:54:22.871Z,2.40
2022-12-08T00:56:49.810Z,2.50
2022-12-08T00:59:16.637Z,2.50
2022-12-08T01:01:45.211Z,2.40
2022-12-08T01:04:17.847Z,2.40
2022-12-08T01:06:45.179Z,2.60
2022-12-08T01:09:13.447Z,2.50
2022-12-08T01:11:40.278Z,2.60
2022-12-08T01:14:06.861Z,2.60
2022-12-08T01:16:36.198Z,2.60
2022-12-08T01:19:03.890Z,2.50
2022-12-08T01:21:30.748Z,2.50
2022-12-08T01:24:00.347Z,2.40
2022-12-08T01:26:27.180Z,2.30
2022-12-08T01:28:53.844Z,2.30
2022-12-08T01:31:22.166Z,2.40
2022-12-08T01:33:49.628Z,2.30
2022-12-08T01:36:28.901Z,2.50
2022-12-08T01:38:58.506Z,2.50
2022-12-08T01:41:28.217Z,2.50
2022-12-08T01:44:01.086Z,2.50
2022-12-08T01:46:30.052Z,2.50
2022-12-08T01:49:05.473Z,2.50
2022-12-08T01:51:36.260Z,2.50
2022-12-08T01:54:05.113Z,2.40
2022-12-08T01:56:41.350Z,2.30
2022-12-08T01:59:08.230Z,2.30
2022-12-08T02:01:35.105Z,2.40
2022-12-08T02:04:04.230Z,2.40
2022-12-08T02:06:35.052Z,2.40
2022-12-08T02:09:03.505Z,2.40
2022-12-08T02:11:30.198Z,2.40
2022-12-08T02:13:58.732Z,2.40
2022-12-08T02:16:44.241Z,2.40
2022-12-08T02:19:47.936Z,2.40
2022-12-08T02:22:43.337Z,2.40
2022-12-08T02:25:28.302Z,2.40
2022-12-08T02:27:54.873Z,2.40
2022-12-08T02:30:25.187Z,2.40
2022-12-08T02:33:13.322Z,2.40
2022-12-08T02:36:04.444Z,2.40
2022-12-08T02:38:36.924Z,2.40
2022-12-08T02:41:11.828Z,2.40
2022-12-08T02:43:55.074Z,2.50
2022-12-08T02:46:27.384Z,2.40
2022-12-08T02:48:56.993Z,2.50
2022-12-08T02:51:23.989Z,2.50
2022-12-08T02:53:50.922Z,2.50
2022-12-08T02:56:50.781Z,2.60
2022-12-08T02:59:38.874Z,2.60
2022-12-08T03:02:21.141Z,2.70
2022-12-08T03:05:08.602Z,2.70
2022-12-08T03:07:51.097Z,2.70
2022-12-08T03:10:37.403Z,2.70
2022-12-08T03:13:17.403Z,2.70
2022-12-08T03:15:48.274Z,2.70
2022-12-08T03:18:17.476Z,2.70
2022-12-08T03:20:46.311Z,2.70
2022-12-08T03:23:15.694Z,2.80
2022-12-08T03:25:50.270Z,2.70
2022-12-08T03:28:17.060Z,2.70
2022-12-08T03:30:47.478Z,2.70
2022-12-08T03:33:24.929Z,2.80
2022-12-08T03:35:53.065Z,2.70
2022-12-08T03:38:19.797Z,2.80
2022-12-08T03:41:09.149Z,2.80
2022-12-08T03:43:36.022Z,2.70
2022-12-08T03:46:02.933Z,2.70
2022-12-08T03:48:29.732Z,2.70
2022-12-08T03:50:56.439Z,2.70
2022-12-08T03:53:23.302Z,2.80
2022-12-08T03:55:49.957Z,2.70
2022-12-08T03:58:16.582Z,2.70
2022-12-08T04:00:43.176Z,2.60
2022-12-08T04:03:10.156Z,2.60
2022-12-08T04:05:36.833Z,2.60
2022-12-08T04:08:03.687Z,2.60
2022-12-08T04:10:30.402Z,2.60
2022-12-08T04:12:57.516Z,2.70
2022-12-08T04:15:24.364Z,2.70
2022-12-08T04:17:51.073Z,2.70
2022-12-08T04:20:17.871Z,2.80
2022-12-08T04:22:44.462Z,2.80
2022-12-08T04:25:11.289Z,2.80
2022-12-08T04:27:37.952Z,2.80
2022-12-08T04:30:05.374Z,2.80
2022-12-08T04:32:32.256Z,2.80
2022-12-08T04:34:58.840Z,2.80
2022-12-08T04:37:25.425Z,2.80
2022-12-08T04:39:52.068Z,2.80
2022-12-08T04:42:18.696Z,2.80
2022-12-08T04:44:45.290Z,2.70
2022-12-08T04:47:12.079Z,2.70
2022-12-08T04:49:38.844Z,2.80
2022-12-08T04:52:05.692Z,2.70
2022-12-08T04:54:32.422Z,2.70
2022-12-08T04:56:59.019Z,2.80
2022-12-08T04:59:25.708Z,2.80
2022-12-08T05:01:52.469Z,2.80
2022-12-08T05:04:19.286Z,2.80
2022-12-08T05:06:45.890Z,2.80
2022-12-08T05:09:12.661Z,2.80
2022-12-08T05:11:48.399Z,2.80
2022-12-08T05:14:17.096Z,2.80
2022-12-08T05:16:44.563Z,2.80
2022-12-08T05:19:11.418Z,2.80
2022-12-08T05:21:38.136Z,2.80
2022-12-08T05:24:05.182Z,2.90
2022-12-08T05:26:31.900Z,2.90
2022-12-08T05:28:58.647Z,2.80
2022-12-08T05:31:25.829Z,2.90
2022-12-08T05:33:53.040Z,2.90
2022-12-08T05:36:20.340Z,2.90
2022-12-08T05:38:47.635Z,2.90
2022-12-08T05:41:17.616Z,2.90
2022-12-08T05:43:44.334Z,3.00
2022-12-08T05:46:11.979Z,3.00
2022-12-08T05:48:39.159Z,2.90
2022-12-08T05:51:12.072Z,2.90
2022-12-08T05:53:38.816Z,3.00
2022-12-08T05:56:05.611Z,3.00
2022-12-08T05:58:32.645Z,3.00
2022-12-08T06:00:59.309Z,3.00
2022-12-08T06:03:26.176Z,3.00
2022-12-08T06:05:52.800Z,2.90
2022-12-08T06:08:19.473Z,3.00
2022-12-08T06:10:46.636Z,3.00
2022-12-08T06:13:14.235Z,2.90
2022-12-08T06:15:41.190Z,3.00
2022-12-08T06:18:08.320Z,3.00
2022-12-08T06:20:35.315Z,3.00
2022-12-08T06:23:03.464Z,3.00
2022-12-08T06:25:30.119Z,3.00
2022-12-08T06:27:56.829Z,3.00
2022-12-08T06:30:23.462Z,3.00
2022-12-08T06:32:50.216Z,3.00
2022-12-08T06:35:16.963Z,3.00
2022-12-08T06:37:43.592Z,3.10
2022-12-08T06:40:10.681Z,3.00
2022-12-08T06:42:43.573Z,3.10
2022-12-08T06:45:12.065Z,3.10
2022-12-08T06:47:38.772Z,3.10
2022-12-08T06:50:07.080Z,3.10
2022-12-08T06:52:36.529Z,3.10
2022-12-08T06:55:06.152Z,3.10
2022-12-08T06:57:32.906Z,3.10
2022-12-08T06:59:59.512Z,3.10
2022-12-08T07:02:26.155Z,3.10
2022-12-08T07:04:52.885Z,3.20
2022-12-08T07:07:19.650Z,3.20
2022-12-08T07:09:46.304Z,3.10
2022-12-08T07:12:12.873Z,3.10
2022-12-08T07:14:39.652Z,3.10
2022-12-08T07:17:06.351Z,3.10
2022-12-08T07:19:33.323Z,3.00
2022-12-08T07:21:59.928Z,3.00
2022-12-08T07:24:26.598Z,3.10
2022-12-08T07:26:53.193Z,3.10
2022-12-08T07:29:25.951Z,3.10
2022-12-08T07:31:52.980Z,3.10
2022-12-08T07:34:19.709Z,3.10
2022-12-08T07:36:46.354Z,3.10
2022-12-08T07:39:12.996Z,3.00
2022-12-08T07:41:39.614Z,3.00
2022-12-08T07:44:06.260Z,3.00
2022-12-08T07:46:32.900Z,3.10
2022-12-08T07:48:59.972Z,3.10
2022-12-08T07:51:26.688Z,3.10
2022-12-08T07:53:55.032Z,3.20
2022-12-08T07:56:22.953Z,3.20
2022-12-08T07:58:49.672Z,3.20
2022-12-08T08:01:27.855Z,3.20
2022-12-08T08:03:56.831Z,3.20
2022-12-08T08:06:23.445Z,3.10
2022-12-08T08:08:50.172Z,3.20
2022-12-08T08:11:21.171Z,3.10
2022-12-08T08:13:49.280Z,3.20
2022-12-08T08:16:16.150Z,3.20
2022-12-08T08:18:43.623Z,3.20
2022-12-08T08:21:43.203Z,3.20
2022-12-08T08:23:56.916Z,3.20
2022-12-08T08:26:23.561Z,3.20
2022-12-08T08:28:50.297Z,3.30
2022-12-08T08:31:17.090Z,3.20
2022-12-08T08:33:43.802Z,3.10
2022-12-08T08:36:11.421Z,3.10
2022-12-08T08:38:42.926Z,3.20
2022-12-08T08:41:10.903Z,3.20
2022-12-08T08:43:39.012Z,3.20
2022-12-08T08:46:06.679Z,3.20
2022-12-08T08:48:34.203Z,3.20
2022-12-08T08:51:11.245Z,3.20
2022-12-08T08:53:38.398Z,3.10
2022-12-08T08:56:13.154Z,3.10
2022-12-08T08:58:40.361Z,3.10
2022-12-08T09:01:07.097Z,3.10
2022-12-08T09:03:34.207Z,3.10
2022-12-08T09:06:00.837Z,3.10
2022-12-08T09:08:27.704Z,3.20
2022-12-08T09:10:55.005Z,3.10
2022-12-08T09:13:22.374Z,3.10
2022-12-08T09:15:49.357Z,3.10
2022-12-08T09:18:16.024Z,3.20
2022-12-08T09:20:42.690Z,3.30
2022-12-08T09:23:09.316Z,3.30
2022-12-08T09:25:35.945Z,3.30
2022-12-08T09:28:02.591Z,3.30
2022-12-08T09:30:29.306Z,3.30
2022-12-08T09:32:55.966Z,3.30
2022-12-08T09:35:22.615Z,3.30
2022-12-08T09:37:49.185Z,3.30
2022-12-08T09:40:19.164Z,3.30
2022-12-08T09:43:10.298Z,3.20
2022-12-08T09:45:37.759Z,3.20
2022-12-08T09:48:18.730Z,3.20
2022-12-08T09:50:53.686Z,3.30
2022-12-08T09:53:48.357Z,3.40
2022-12-08T09:56:35.779Z,3.40
2022-12-08T09:59:23.086Z,3.40
2022-12-08T10:01:50.815Z,3.40
2022-12-08T10:04:38.459Z,3.40
2022-12-08T10:07:20.737Z,3.40
2022-12-08T10:10:17.746Z,3.40
2022-12-08T10:13:16.293Z,3.50
2022-12-08T10:16:08.768Z,3.50
2022-12-08T10:18:37.687Z,3.50
2022-12-08T10:21:32.419Z,3.50
2022-12-08T10:24:05.840Z,3.50
2022-12-08T10:26:32.912Z,3.50
2022-12-08T10:29:02.649Z,3.60
2022-12-08T10:31:30.472Z,3.60
2022-12-08T10:34:05.656Z,3.70
2022-12-08T10:36:45.057Z,3.80
2022-12-08T10:39:34.947Z,3.90
2022-12-08T10:42:14.367Z,3.90
2022-12-08T10:45:00.580Z,3.80
2022-12-08T10:47:29.211Z,3.90
2022-12-08T10:50:33.576Z,3.90
2022-12-08T10:53:07.810Z,3.90
2022-12-08T10:55:48.801Z,3.90
2022-12-08T10:58:27.494Z,3.90
2022-12-08T11:01:11.025Z,4.00
2022-12-08T11:04:01.841Z,4.00
2022-12-08T11:06:35.657Z,4.00
2022-12-08T11:09:04.549Z,4.00
2022-12-08T11:12:05.025Z,4.00
2022-12-08T11:14:43.619Z,4.10
2022-12-08T11:17:17.650Z,4.10
2022-12-08T11:20:06.905Z,4.10
2022-12-08T11:22:38.887Z,4.00
2022-12-08T11:25:10.227Z,4.00
2022-12-08T11:27:45.726Z,4.00
2022-12-08T11:30:24.192Z,4.10
2022-12-08T11:32:55.500Z,4.00
2022-12-08T11:35:29.837Z,4.00
2022-12-08T11:38:13.738Z,4.00
2022-12-08T11:40:50.690Z,4.10
2022-12-08T11:43:35.717Z,4.10
2022-12-08T11:46:12.624Z,4.10
2022-12-08T11:49:05.627Z,4.10
2022-12-08T11:51:56.338Z,4.10
2022-12-08T11:54:34.111Z,4.20
2022-12-08T11:57:08.584Z,4.20
2022-12-08T11:59:39.694Z,4.10
2022-12-08T12:02:13.583Z,4.00
2022-12-08T12:04:52.643Z,3.90
2022-12-08T12:07:52.340Z,3.80
2022-12-08T12:10:21.753Z,3.80
2022-12-08T12:13:06.924Z,3.90
2022-12-08T12:15:36.533Z,3.90
2022-12-08T12:18:16.499Z,3.90
2022-12-08T12:20:56.933Z,3.90
2022-12-08T12:23:40.412Z,3.90
2022-12-08T12:26:10.297Z,3.90
2022-12-08T12:28:52.597Z,3.90
2022-12-08T12:31:33.080Z,4.00
2022-12-08T12:34:14.530Z,4.00
2022-12-08T12:37:05.479Z,4.10
2022-12-08T12:39:46.321Z,4.10
2022-12-08T12:42:35.567Z,4.10
2022-12-08T12:45:17.233Z,4.20
2022-12-08T12:47:51.033Z,4.10
2022-12-08T12:50:34.656Z,4.10
2022-12-08T12:53:03.512Z,4.10
2022-12-08T12:55:52.028Z,4.10
2022-12-08T12:58:32.426Z,4.10
2022-12-08T13:01:13.876Z,4.00
2022-12-08T13:03:47.342Z,4.00
2022-12-08T13:06:21.391Z,4.10
2022-12-08T13:08:55.042Z,4.10
2022-12-08T13:11:23.213Z,4.20
2022-12-08T13:14:03.170Z,4.10
2022-12-08T13:16:37.017Z,4.10
2022-12-08T13:19:15.910Z,4.10
2022-12-08T13:21:42.750Z,4.20
2022-12-08T13:24:26.782Z,4.10
2022-12-08T13:27:29.563Z,4.10
2022-12-08T13:30:33.855Z,4.10
2022-12-08T13:33:18.459Z,4.10
2022-12-08T13:35:51.433Z,4.10
2022-12-08T13:38:21.338Z,4.10
2022-12-08T13:40:49.120Z,4.10
2022-12-08T13:43:21.593Z,4.10
2022-12-08T13:46:52.511Z,4.10
2022-12-08T13:50:15.605Z,4.10
2022-12-08T13:55:35.477Z,4.20
2022-12-08T13:57:33.057Z,4.10
2022-12-08T14:00:06.051Z,4.10
2022-12-08T14:02:48.227Z,4.10
2022-12-08T14:05:26.417Z,4.10
2022-12-08T14:08:02.257Z,4.00
2022-12-08T14:10:31.952Z,4.00
2022-12-08T14:13:03.378Z,3.90
2022-12-08T14:15:37.618Z,3.90
2022-12-08T14:18:05.865Z,3.90
2022-12-08T14:20:51.889Z,3.80
2022-12-08T14:23:18.890Z,3.90
2022-12-08T14:25:48.154Z,3.90
2022-12-08T14:28:14.941Z,3.80
2022-12-08T14:30:41.640Z,3.80
2022-12-08T14:33:14.666Z,3.70
2022-12-08T14:35:41.283Z,3.70
2022-12-08T14:38:19.279Z,3.70
2022-12-08T14:40:48.657Z,3.70
2022-12-08T14:43:19.287Z,3.60
2022-12-08T14:45:47.005Z,3.60
2022-12-08T14:48:33.514Z,3.70
2022-12-08T14:51:18.685Z,3.70
2022-12-08T14:54:00.683Z,3.70
2022-12-08T14:56:33.424Z,3.60
2022-12-08T14:59:17.915Z,3.60
2022-12-08T15:01:45.672Z,3.50
2022-12-08T15:04:12.293Z,3.40
2022-12-08T15:07:09.849Z,3.40
2022-12-08T15:09:45.657Z,3.40
2022-12-08T15:12:12.276Z,3.40
2022-12-08T15:14:43.425Z,3.40
2022-12-08T15:17:34.742Z,3.40
2022-12-08T15:20:03.184Z,3.40
2022-12-08T15:22:31.414Z,3.30
2022-12-08T15:24:58.476Z,3.40
2022-12-08T15:27:25.736Z,3.40
2022-12-08T15:29:52.937Z,3.40
2022-12-08T15:32:22.037Z,3.40
2022-12-08T15:34:49.437Z,3.40
2022-12-08T15:37:21.954Z,3.40
2022-12-08T15:39:49.223Z,3.40
2022-12-08T15:42:16.275Z,3.40
2022-12-08T15:44:43.465Z,3.40
2022-12-08T15:47:16.920Z,3.30
2022-12-08T15:49:44.293Z,3.30
2022-12-08T15:52:15.982Z,3.30
2022-12-08T15:54:42.796Z,3.30
2022-12-08T15:58:04.026Z,3.30
2022-12-08T16:04:09.328Z,3.30
2022-12-08T16:09:12.183Z,3.30
2022-12-08T16:12:07.849Z,3.30
2022-12-08T16:17:23.495Z,3.40
2022-12-08T16:19:50.168Z,3.40
2022-12-08T16:25:23.127Z,3.30
2022-12-08T16:28:08.386Z,3.40
2022-12-08T16:30:40.621Z,3.40
2022-12-08T16:33:07.598Z,3.40
2022-12-08T16:35:34.377Z,3.30
2022-12-08T16:38:01.416Z,3.20
2022-12-08T16:40:28.092Z,3.20
2022-12-08T16:42:54.801Z,3.20
2022-12-08T16:45:27.653Z,3.30
2022-12-08T16:47:59.982Z,3.30
2022-12-08T16:50:32.151Z,3.30
2022-12-08T16:53:02.011Z,3.30
2022-12-08T16:55:28.694Z,3.30
2022-12-08T16:57:56.019Z,3.20
2022-12-08T17:00:25.400Z,3.20
2022-12-08T17:02:52.398Z,3.10
2022-12-08T17:05:21.278Z,3.10
2022-12-08T17:07:51.064Z,3.10
2022-12-08T17:10:20.837Z,3.10
2022-12-08T17:12:47.352Z,3.00
2022-12-08T17:15:18.273Z,3.00
2022-12-08T17:17:45.065Z,3.00
2022-12-08T17:20:19.142Z,3.00
2022-12-08T17:22:46.735Z,3.00
2022-12-08T17:25:14.021Z,2.80
2022-12-08T17:27:41.765Z,2.80
2022-12-08T17:30:11.593Z,2.80
2022-12-08T17:32:38.908Z,2.70
2022-12-08T17:35:14.385Z,2.60
2022-12-08T17:37:42.700Z,2.60
2022-12-08T17:40:09.690Z,2.50
2022-12-08T17:42:37.962Z,2.50
2022-12-08T17:45:06.675Z,2.50
2022-12-08T17:47:33.538Z,2.50
2022-12-08T17:50:00.800Z,2.60
2022-12-08T17:52:27.872Z,2.60
2022-12-08T17:54:54.519Z,2.60
2022-12-08T17:57:21.268Z,2.70
2022-12-08T17:59:47.960Z,2.70
2022-12-08T18:02:15.115Z,2.70
2022-12-08T18:04:41.975Z,2.70
2022-12-08T18:07:08.564Z,2.70
2022-12-08T18:09:35.324Z,2.70
2022-12-08T18:12:02.020Z,2.70
2022-12-08T18:14:28.919Z,2.70
2022-12-08T18:16:55.705Z,2.60
2022-12-08T18:19:22.629Z,2.70
2022-12-08T18:21:49.552Z,2.70
2022-12-08T18:24:20.849Z,2.70
2022-12-08T18:26:47.829Z,2.80
2022-12-08T18:29:14.545Z,2.80
2022-12-08T18:31:41.333Z,2.80
2022-12-08T18:34:08.104Z,2.70
2022-12-08T18:36:35.072Z,2.80
2022-12-08T18:39:07.241Z,2.80
2022-12-08T18:41:37.097Z,2.80
2022-12-08T18:44:03.952Z,2.80
2022-12-08T18:46:30.617Z,2.70
2022-12-08T18:48:58.028Z,2.70
2022-12-08T18:51:25.210Z,2.70
2022-12-08T18:53:52.774Z,2.70
2022-12-08T18:56:27.995Z,2.70
2022-12-08T18:59:01.292Z,2.70
2022-12-08T19:01:30.193Z,2.70
2022-12-08T19:04:26.575Z,2.80
2022-12-08T19:06:46.003Z,2.80
2022-12-08T19:09:14.061Z,2.80
2022-12-08T19:11:41.460Z,2.70
2022-12-08T19:14:08.763Z,2.60
2022-12-08T19:16:36.356Z,2.60
2022-12-08T19:19:03.890Z,2.50
2022-12-08T19:21:31.311Z,2.60
2022-12-08T19:24:01.446Z,2.70
2022-12-08T19:26:28.716Z,2.70
2022-12-08T19:28:55.487Z,2.70
2022-12-08T19:31:22.204Z,2.70
2022-12-08T19:33:48.890Z,2.70
2022-12-08T19:36:18.502Z,2.50
2022-12-08T19:39:04.263Z,2.50
2022-12-08T19:41:50.235Z,2.60
2022-12-08T19:44:28.884Z,2.60
2022-12-08T19:46:55.680Z,2.60
2022-12-08T19:49:22.402Z,2.60
2022-12-08T19:51:49.112Z,2.50
2022-12-08T19:54:15.703Z,2.60
2022-12-08T19:56:42.319Z,2.60
2022-12-08T19:59:08.974Z,2.60
2022-12-08T20:01:37.561Z,2.50
2022-12-08T20:04:04.972Z,2.50
2022-12-08T20:06:31.629Z,2.40
2022-12-08T20:08:58.323Z,2.50
2022-12-08T20:11:24.948Z,2.50
2022-12-08T20:13:51.572Z,2.50
2022-12-08T20:16:18.315Z,2.60
2022-12-08T20:18:45.879Z,2.60
2022-12-08T20:21:12.666Z,2.60
2022-12-08T20:23:39.349Z,2.60
2022-12-08T20:26:07.952Z,2.60
2022-12-08T20:28:35.391Z,2.60
2022-12-08T20:31:02.192Z,2.60
2022-12-08T20:33:29.396Z,2.60
2022-12-08T20:36:01.562Z,2.60
2022-12-08T20:38:29.467Z,2.60
2022-12-08T20:40:57.913Z,2.60
2022-12-08T20:43:25.325Z,2.60
2022-12-08T20:45:52.042Z,2.60
2022-12-08T20:48:18.616Z,2.60
2022-12-08T20:50:45.565Z,2.50
2022-12-08T20:53:12.172Z,2.40
2022-12-08T20:55:41.936Z,2.50
2022-12-08T20:58:08.726Z,2.40
2022-12-08T21:00:35.582Z,2.50
2022-12-08T21:03:02.389Z,2.50
2022-12-08T21:05:29.561Z,2.50
2022-12-08T21:07:56.572Z,2.50
2022-12-08T21:10:23.241Z,2.50
2022-12-08T21:12:50.120Z,2.50
2022-12-08T21:15:16.789Z,2.50
2022-12-08T21:17:43.986Z,2.60
2022-12-08T21:20:11.408Z,2.50
2022-12-08T21:22:39.899Z,2.50
2022-12-08T21:25:07.668Z,2.50
2022-12-08T21:27:34.389Z,2.60
2022-12-08T21:30:01.131Z,2.60
2022-12-08T21:32:30.697Z,2.60
2022-12-08T21:34:57.963Z,2.60
2022-12-08T21:37:25.023Z,2.60
2022-12-08T21:39:51.847Z,2.60
2022-12-08T21:42:37.177Z,2.60
2022-12-08T21:45:04.146Z,2.60
2022-12-08T21:47:30.944Z,2.60
2022-12-08T21:49:58.093Z,2.60
2022-12-08T21:52:24.791Z,2.60
2022-12-08T21:54:51.772Z,2.60
2022-12-08T21:57:18.442Z,2.60
2022-12-08T21:59:45.318Z,2.60
2022-12-08T22:02:16.656Z,2.60
2022-12-08T22:04:47.977Z,2.60
2022-12-08T22:07:15.031Z,2.60
2022-12-08T22:09:42.154Z,2.60
2022-12-08T22:12:11.850Z,2.60
2022-12-08T22:14:39.908Z,2.60
2022-12-08T22:17:07.984Z,2.60
2022-12-08T22:19:34.902Z,2.60
2022-12-08T22:22:02.658Z,2.60
2022-12-08T22:24:30.905Z,2.70
2022-12-08T22:26:57.919Z,2.60
2022-12-08T22:29:24.985Z,2.60
2022-12-08T22:31:51.811Z,2.60
2022-12-08T22:34:18.681Z,2.60
2022-12-08T22:36:46.097Z,2.60
2022-12-08T22:39:13.255Z,2.70
2022-12-08T22:41:40.618Z,2.70
2022-12-08T22:44:08.186Z,2.70
2022-12-08T22:46:35.345Z,2.70
2022-12-08T22:49:02.638Z,2.70
2022-12-08T22:51:29.971Z,2.70
2022-12-08T22:53:56.874Z,2.70
2022-12-08T22:56:24.149Z,2.70
2022-12-08T22:58:51.314Z,2.70
2022-12-08T23:01:29.988Z,2.70
2022-12-08T23:03:58.160Z,2.70
2022-12-08T23:06:26.550Z,2.70
2022-12-08T23:08:53.417Z,2.60
2022-12-08T23:11:21.955Z,2.70
2022-12-08T23:13:49.055Z,2.60
2022-12-08T23:16:15.894Z,2.60
2022-12-08T23:18:45.133Z,2.50
2022-12-08T23:21:16.255Z,2.40
2022-12-08T23:23:42.933Z,2.20
2022-12-08T23:26:19.819Z,2.30
2022-12-08T23:28:47.355Z,2.30
2022-12-08T23:31:14.412Z,2.40
2022-12-08T23:33:41.497Z,2.40
2022-12-08T23:36:09.119Z,2.40
2022-12-08T23:38:35.993Z,2.50
2022-12-08T23:41:05.398Z,2.50
2022-12-08T23:43:32.459Z,2.40
2022-12-08T23:45:59.167Z,2.50
2022-12-08T23:48:26.671Z,2.50
2022-12-08T23:50:53.590Z,2.50
2022-12-08T23:53:20.340Z,2.40
2022-12-08T23:55:47.012Z,2.30
2022-12-08T23:58:14.261Z,2.30
